This is the latest recevied weather packets stored in our database for station/object ANJALA. If no packets are shown the sender has not sent any weather packets the latest 10 day(s).
| Time | Temp. | Humidity | Pressure | Rain* | Wind** | Luminosity | Snow |
|---|---|---|---|---|---|---|---|
| 1788410676 | 12.22° C | 100% | - | 0 mm | - | - | - |
| 1788408276 | 11.67° C | 100% | - | 0 mm | - | - | - |
| 1788406866 | 11.67° C | 100% | - | 0 mm | - | - | - |
| 1788405666 | 11.67° C | 100% | - | 0 mm | - | - | - |
| 1788404676 | 11.11° C | 100% | - | 0 mm | - | - | - |
| 1788403476 | 11.11° C | 99% | - | 0 mm | - | - | - |
| 1788402277 | 11.11° C | 99% | - | 0 mm | - | - | - |
| 1788380675 | 11.11° C | 97% | - | 0 mm | - | - | - |
| 1788378275 | 11.67° C | 96% | - | 0 mm | - | - | - |
| 1788377075 | 11.67° C | 96% | - | 0 mm | - | - | - |
| 1788375877 | 11.67° C | 96% | - | 0 mm | - | - | - |
| 1788373475 | 12.22° C | 95% | - | 0 mm | - | - | - |
| 1788369664 | 13.33° C | 89% | - | 0 mm | - | - | - |
| 1788368676 | 13.89° C | 87% | - | 0 mm | - | - | - |
| 1788367474 | 16.11° C | 80% | - | 0 mm | - | - | - |
| 1788362674 | 18.33° C | 60% | - | 0 mm | - | - | - |
| 1788356673 | 18.33° C | 57% | - | 0 mm | - | - | - |
| 1788355473 | 18.33° C | 54% | - | 0 mm | - | - | - |
| 1788354273 | 18.33° C | 61% | - | 0 mm | - | - | - |
| 1788351873 | 18.33° C | 61% | - | 0 mm | - | - | - |
| 1788350673 | 18.33° C | 62% | - | 0 mm | - | - | - |
| 1788349473 | 18.89° C | 62% | - | 0 mm | - | - | - |
| 1788348274 | 18.89° C | 58% | - | 0 mm | - | - | - |
| 1788347074 | 18.33° C | 59% | - | 0 mm | - | - | - |
| 1788344672 | 18.33° C | 66% | - | 0 mm | - | - | - |
* Rain latest hour (hover to see other rain measurements)
** Current wind speed in m/s (hover to see current wind gust speed)